PWSweather.com
Personal Weather Stations
Station Observations
CW4114
Near Downtown, Rogers City, MI 49779

Near DowntownRogers City, MI 49779

Lat: 45.417443, Lon: -83.810642

Elevation: 605

Station Type: Davis Vantage Pro2 w/Solar

Latest ConditionsUpdated 2:38:35 AM EDT Friday, Aug 26, 2016
Currently Today's Max Today's Min Today's Average
Temperature 66.0°F18.9°C 66.0°F18.9°C 64.8°F18.2°C 65.6°F18.7°C
Dew Point 60.4°F15.8°C 60.4°F15.8°C 57.4°F14.1°C 59.0°F15.0°C
Winds 6.3 mph WNW10.1 kmh WNW 7.6 mph WSW12.2 kmh WSW - 6.2 mph 10.0 kmh
Wind Gusts 12.8 mph20.6 kmh 13.9 mph22.4 kmh - -
Humidity 82% 82% 76% 79%
Pressure 29.95 in1014.2 mb 29.95 in1014.2 mb 29.93 in1013.5 mb -
Hour Temp Dew Point Humidity Winds Wind Gusts Pressure Precip Precip Rate Daily Precip Total
02:38 AM 66.0°F18.9°C 60.4°F15.8°C 82% 6.3 mph WNW10.1 kmh WNW 12.8 mph20.6 kmh 29.95 in1014.2 mb 0.00 in0.0 mm 0.00 in0.0 mm 0.00 in0.0 mm
02:33 AM 65.8°F18.8°C 60.3°F15.7°C 82% 5.8 mph WSW9.3 kmh WSW 10.5 mph16.9 kmh 29.95 in1014.2 mb 0.00 in0.0 mm 0.00 in0.0 mm 0.00 in0.0 mm
02:28 AM 66.0°F18.9°C 60.1°F15.6°C 81% 7.2 mph WSW11.6 kmh WSW 10.5 mph16.9 kmh 29.95 in1014.2 mb 0.00 in0.0 mm 0.00 in0.0 mm 0.00 in0.0 mm
02:23 AM 66.0°F18.9°C 60.1°F15.6°C 81% 7.6 mph WSW12.2 kmh WSW 13.9 mph22.4 kmh 29.95 in1014.2 mb 0.00 in0.0 mm 0.00 in0.0 mm 0.00 in0.0 mm
02:18 AM 66.0°F18.9°C 60.1°F15.6°C 81% 6.0 mph WSW9.7 kmh WSW 13.9 mph22.4 kmh 29.95 in1014.2 mb 0.00 in0.0 mm 0.00 in0.0 mm 0.00 in0.0 mm
02:13 AM 66.0°F18.9°C 60.1°F15.6°C 81% 6.9 mph W11.1 kmh W 11.6 mph18.7 kmh 29.95 in1014.2 mb 0.00 in0.0 mm 0.00 in0.0 mm 0.00 in0.0 mm
02:08 AM 66.0°F18.9°C 59.7°F15.4°C 80% 6.0 mph WSW9.7 kmh WSW 11.6 mph18.7 kmh 29.95 in1014.2 mb 0.00 in0.0 mm 0.00 in0.0 mm 0.00 in0.0 mm
02:03 AM 66.0°F18.9°C 59.7°F15.4°C 80% 6.7 mph W10.8 kmh W 11.6 mph18.7 kmh 29.94 in1013.9 mb 0.00 in0.0 mm 0.00 in0.0 mm 0.00 in0.0 mm
01:58 AM 66.0°F18.9°C 59.7°F15.4°C 80% 6.5 mph WSW10.5 kmh WSW 12.8 mph20.6 kmh 29.94 in1013.9 mb 0.00 in0.0 mm 0.00 in0.0 mm 0.00 in0.0 mm
01:53 AM 66.0°F18.9°C 59.7°F15.4°C 80% 6.3 mph WSW10.1 kmh WSW 11.6 mph18.7 kmh 29.94 in1013.9 mb 0.00 in0.0 mm 0.00 in0.0 mm 0.00 in0.0 mm
01:48 AM 66.0°F18.9°C 59.7°F15.4°C 80% 6.9 mph W11.1 kmh W 11.6 mph18.7 kmh 29.94 in1013.9 mb 0.00 in0.0 mm 0.00 in0.0 mm 0.00 in0.0 mm
01:43 AM 65.8°F18.8°C 59.2°F15.1°C 79% 6.9 mph W11.1 kmh W 10.5 mph16.9 kmh 29.94 in1013.9 mb 0.00 in0.0 mm 0.00 in0.0 mm 0.00 in0.0 mm
01:38 AM 65.8°F18.8°C 59.2°F15.1°C 79% 6.7 mph WSW10.8 kmh WSW 11.6 mph18.7 kmh 29.94 in1013.9 mb 0.00 in0.0 mm 0.00 in0.0 mm 0.00 in0.0 mm
01:33 AM 65.8°F18.8°C 59.2°F15.1°C 79% 5.4 mph WSW8.7 kmh WSW 11.6 mph18.7 kmh 29.94 in1013.9 mb 0.00 in0.0 mm 0.00 in0.0 mm 0.00 in0.0 mm
01:28 AM 65.8°F18.8°C 59.2°F15.1°C 79% 7.4 mph W11.9 kmh W 11.6 mph18.7 kmh 29.94 in1013.9 mb 0.00 in0.0 mm 0.00 in0.0 mm 0.00 in0.0 mm
01:23 AM 65.8°F18.8°C 58.8°F14.9°C 78% 5.4 mph WSW8.7 kmh WSW 13.9 mph22.4 kmh 29.94 in1013.9 mb 0.00 in0.0 mm 0.00 in0.0 mm 0.00 in0.0 mm
01:18 AM 65.8°F18.8°C 58.8°F14.9°C 78% 6.9 mph WSW11.1 kmh WSW 11.6 mph18.7 kmh 29.94 in1013.9 mb 0.00 in0.0 mm 0.00 in0.0 mm 0.00 in0.0 mm
01:13 AM 65.8°F18.8°C 58.8°F14.9°C 78% 6.7 mph W10.8 kmh W 11.6 mph18.7 kmh 29.94 in1013.9 mb 0.00 in0.0 mm 0.00 in0.0 mm 0.00 in0.0 mm
01:08 AM 65.8°F18.8°C 58.8°F14.9°C 78% 6.5 mph W10.5 kmh W 10.5 mph16.9 kmh 29.94 in1013.9 mb 0.00 in0.0 mm 0.00 in0.0 mm 0.00 in0.0 mm
01:03 AM 65.8°F18.8°C 58.8°F14.9°C 78% 5.1 mph W8.2 kmh W 10.5 mph16.9 kmh 29.94 in1013.9 mb 0.00 in0.0 mm 0.00 in0.0 mm 0.00 in0.0 mm
12:58 AM 65.8°F18.8°C 58.8°F14.9°C 78% 7.4 mph W11.9 kmh W 12.8 mph20.6 kmh 29.94 in1013.9 mb 0.00 in0.0 mm 0.00 in0.0 mm 0.00 in0.0 mm
12:53 AM 65.7°F18.7°C 58.3°F14.6°C 77% 4.9 mph WSW7.9 kmh WSW 13.9 mph22.4 kmh 29.94 in1013.9 mb 0.00 in0.0 mm 0.00 in0.0 mm 0.00 in0.0 mm
12:48 AM 65.7°F18.7°C 58.6°F14.8°C 78% 5.6 mph WNW9.0 kmh WNW 12.8 mph20.6 kmh 29.93 in1013.5 mb 0.00 in0.0 mm 0.00 in0.0 mm 0.00 in0.0 mm
12:43 AM 65.3°F18.5°C 58.3°F14.6°C 78% 7.6 mph WSW12.2 kmh WSW 13.9 mph22.4 kmh 29.94 in1013.9 mb 0.00 in0.0 mm 0.00 in0.0 mm 0.00 in0.0 mm
12:38 AM 64.9°F18.3°C 57.9°F14.4°C 78% 6.3 mph W10.1 kmh W 13.9 mph22.4 kmh 29.94 in1013.9 mb 0.00 in0.0 mm 0.00 in0.0 mm 0.00 in0.0 mm
12:33 AM 64.9°F18.3°C 57.9°F14.4°C 78% 5.4 mph W8.7 kmh W 7.4 mph11.9 kmh 29.93 in1013.5 mb 0.00 in0.0 mm 0.00 in0.0 mm 0.00 in0.0 mm
12:28 AM 64.8°F18.2°C 57.7°F14.3°C 78% 5.6 mph WSW9.0 kmh WSW 9.6 mph15.4 kmh 29.93 in1013.5 mb 0.00 in0.0 mm 0.00 in0.0 mm 0.00 in0.0 mm
12:23 AM 64.9°F18.3°C 57.6°F14.2°C 77% 4.9 mph W7.9 kmh W 8.5 mph13.7 kmh 29.93 in1013.5 mb 0.00 in0.0 mm 0.00 in0.0 mm 0.00 in0.0 mm
12:18 AM 64.9°F18.3°C 57.6°F14.2°C 77% 5.6 mph WSW9.0 kmh WSW 8.5 mph13.7 kmh 29.93 in1013.5 mb 0.00 in0.0 mm 0.00 in0.0 mm 0.00 in0.0 mm
12:13 AM 64.9°F18.3°C 57.6°F14.2°C 77% 3.6 mph WSW5.8 kmh WSW 7.4 mph11.9 kmh 29.93 in1013.5 mb 0.00 in0.0 mm 0.00 in0.0 mm 0.00 in0.0 mm
12:08 AM 65.1°F18.4°C 57.4°F14.1°C 76% 4.9 mph WSW7.9 kmh WSW 7.4 mph11.9 kmh 29.93 in1013.5 mb 0.00 in0.0 mm 0.00 in0.0 mm 0.00 in0.0 mm
12:03 AM -5537.2°C -5537.2°C - - N16091.8 kmh N -- -338605.1 mb 0.00 in0.0 mm 0.00 in0.0 mm 0.00 in0.0 mm